createdAt,value
2023-03-08T00:00:29.901Z,73.89
2023-03-08T00:05:57.022Z,73.47
2023-03-08T00:08:28.124Z,73.69
2023-03-08T00:10:59.941Z,72.43
2023-03-08T00:13:34.280Z,73.64
2023-03-08T00:16:11.955Z,73.29
2023-03-08T00:18:43.529Z,72.51
2023-03-08T00:21:16.741Z,72.42
2023-03-08T00:23:53.486Z,72.26
2023-03-08T00:26:42.174Z,71.68
2023-03-08T00:29:22.101Z,72.18
2023-03-08T00:32:16.192Z,72.48
2023-03-08T00:35:00.874Z,73.45
2023-03-08T00:38:00.651Z,73.95
2023-03-08T00:43:28.430Z,72.34
2023-03-08T00:46:14.281Z,72.36
2023-03-08T00:48:58.965Z,72.92
2023-03-08T00:51:45.040Z,74.32
2023-03-08T00:54:17.364Z,74.73
2023-03-08T00:56:56.146Z,74.08
2023-03-08T00:59:31.330Z,74.13
2023-03-08T01:02:08.472Z,74.17
2023-03-08T01:04:54.301Z,73.19
2023-03-08T01:10:24.756Z,73.48
2023-03-08T01:13:15.539Z,73.83
2023-03-08T01:16:15.706Z,73.13
2023-03-08T01:21:41.911Z,72.24
2023-03-08T01:24:11.983Z,72.41
2023-03-08T01:26:46.652Z,73.53
2023-03-08T01:29:19.153Z,74.09
2023-03-08T01:31:50.286Z,74.86
2023-03-08T01:34:32.811Z,74.59
2023-03-08T01:37:17.613Z,75.38
2023-03-08T01:39:49.218Z,76.24
2023-03-08T01:42:28.242Z,76.50
2023-03-08T01:45:13.187Z,76.02
2023-03-08T01:47:56.258Z,76.45
2023-03-08T01:50:34.826Z,77.56
2023-03-08T01:53:09.626Z,76.00
2023-03-08T01:55:42.603Z,77.07
2023-03-08T01:58:09.375Z,77.95
2023-03-08T02:00:38.316Z,78.43
2023-03-08T02:03:07.682Z,78.36
2023-03-08T02:05:36.625Z,78.65
2023-03-08T02:08:03.280Z,79.10
2023-03-08T02:10:30.077Z,78.69
2023-03-08T02:12:56.784Z,78.05
2023-03-08T02:15:26.940Z,78.26
2023-03-08T02:17:53.703Z,77.97
2023-03-08T02:20:32.529Z,78.11
2023-03-08T02:23:09.359Z,78.73
2023-03-08T02:25:35.970Z,77.98
2023-03-08T02:28:03.539Z,77.85
2023-03-08T02:30:34.216Z,77.75
2023-03-08T02:33:00.887Z,77.55
2023-03-08T02:35:27.846Z,78.04
2023-03-08T02:37:54.577Z,78.04
2023-03-08T02:40:21.390Z,77.26
2023-03-08T02:42:48.142Z,77.94
2023-03-08T02:45:14.987Z,78.20
2023-03-08T02:47:42.554Z,79.12
2023-03-08T02:50:09.571Z,78.12
2023-03-08T02:52:36.233Z,78.44
2023-03-08T02:55:02.959Z,79.19
2023-03-08T02:57:29.627Z,79.99
2023-03-08T02:59:56.418Z,80.90
2023-03-08T03:02:23.168Z,80.58
2023-03-08T03:04:49.976Z,81.50
2023-03-08T03:07:21.609Z,82.20
2023-03-08T03:09:48.472Z,81.34
2023-03-08T03:12:15.455Z,82.03
2023-03-08T03:14:42.276Z,82.49
2023-03-08T03:17:09.132Z,83.00
2023-03-08T03:19:37.434Z,84.02
2023-03-08T03:22:04.397Z,84.69
2023-03-08T03:24:31.176Z,85.93
2023-03-08T03:26:58.019Z,85.57
2023-03-08T03:29:24.870Z,85.80
2023-03-08T03:31:51.613Z,85.58
2023-03-08T03:34:18.387Z,85.29
2023-03-08T03:36:45.260Z,86.42
2023-03-08T03:39:11.981Z,87.36
2023-03-08T03:41:38.694Z,86.38
2023-03-08T03:44:05.594Z,86.68
2023-03-08T03:46:32.489Z,87.69
2023-03-08T03:48:59.587Z,88.73
2023-03-08T03:51:26.313Z,88.59
2023-03-08T03:53:53.140Z,88.53
2023-03-08T03:56:21.262Z,88.80
2023-03-08T03:58:48.487Z,87.60
2023-03-08T04:01:18.408Z,88.30
2023-03-08T04:03:45.181Z,88.00
2023-03-08T04:06:14.360Z,88.27
2023-03-08T04:08:42.726Z,88.54
2023-03-08T04:11:10.310Z,88.36
2023-03-08T04:13:37.614Z,87.96
2023-03-08T04:16:07.672Z,88.62
2023-03-08T04:18:34.392Z,89.20
2023-03-08T04:21:01.161Z,89.13
2023-03-08T04:23:27.946Z,89.18
2023-03-08T04:25:54.799Z,89.61
2023-03-08T04:28:21.674Z,90.28
2023-03-08T04:30:48.355Z,89.95
2023-03-08T04:33:15.104Z,90.38
2023-03-08T04:35:42.023Z,89.94
2023-03-08T04:38:08.784Z,89.82
2023-03-08T04:40:57.872Z,90.41
2023-03-08T04:43:24.990Z,90.75
2023-03-08T04:45:51.785Z,90.91
2023-03-08T04:48:18.572Z,91.36
2023-03-08T04:50:45.349Z,91.24
2023-03-08T04:53:12.155Z,90.91
2023-03-08T04:55:39.139Z,91.10
2023-03-08T04:58:06.103Z,91.37
2023-03-08T05:00:32.787Z,91.35
2023-03-08T05:02:59.513Z,91.55
2023-03-08T05:05:26.317Z,91.27
2023-03-08T05:07:53.749Z,90.90
2023-03-08T05:10:20.549Z,91.22
2023-03-08T05:12:49.799Z,91.83
2023-03-08T05:15:16.634Z,91.84
2023-03-08T05:17:43.519Z,92.15
2023-03-08T05:20:10.838Z,92.40
2023-03-08T05:22:55.095Z,92.18
2023-03-08T05:25:24.253Z,91.30
2023-03-08T05:27:51.028Z,91.89
2023-03-08T05:30:21.028Z,91.47
2023-03-08T05:32:48.002Z,91.73
2023-03-08T05:35:14.996Z,92.63
2023-03-08T05:37:41.815Z,93.12
2023-03-08T05:40:08.985Z,93.10
2023-03-08T05:42:35.775Z,92.26
2023-03-08T05:45:02.872Z,93.32
2023-03-08T05:47:30.556Z,93.66
2023-03-08T05:49:57.345Z,93.22
2023-03-08T05:52:24.082Z,93.18
2023-03-08T05:54:50.900Z,92.36
2023-03-08T05:57:17.823Z,92.37
2023-03-08T05:59:44.577Z,92.84
2023-03-08T06:02:13.565Z,93.74
2023-03-08T06:04:40.392Z,93.11
2023-03-08T06:07:07.251Z,93.38
2023-03-08T06:09:34.283Z,93.78
2023-03-08T06:12:01.020Z,93.71
2023-03-08T06:14:27.791Z,93.81
2023-03-08T06:16:54.645Z,93.84
2023-03-08T06:19:21.587Z,94.37
2023-03-08T06:21:48.532Z,94.27
2023-03-08T06:24:15.302Z,93.20
2023-03-08T06:26:42.333Z,93.26
2023-03-08T06:29:09.333Z,92.53
2023-03-08T06:31:36.172Z,92.70
2023-03-08T06:34:03.834Z,92.80
2023-03-08T06:36:30.666Z,92.97
2023-03-08T06:39:00.008Z,93.81
2023-03-08T06:41:26.856Z,93.93
2023-03-08T06:43:53.868Z,92.87
2023-03-08T06:46:20.811Z,93.25
2023-03-08T06:48:48.565Z,94.60
2023-03-08T06:51:15.612Z,95.04
2023-03-08T06:53:42.665Z,95.26
2023-03-08T06:56:10.029Z,96.10
2023-03-08T06:58:37.313Z,94.83
2023-03-08T07:01:05.955Z,94.66
2023-03-08T07:03:33.497Z,94.92
2023-03-08T07:06:00.845Z,94.31
2023-03-08T07:08:27.948Z,94.60
2023-03-08T07:10:54.876Z,94.31
2023-03-08T07:13:24.134Z,93.66
2023-03-08T07:15:51.900Z,92.43
2023-03-08T07:18:19.785Z,92.47
2023-03-08T07:20:46.655Z,93.43
2023-03-08T07:23:13.768Z,94.08
2023-03-08T07:25:40.644Z,94.12
2023-03-08T07:28:07.553Z,94.52
2023-03-08T07:30:34.417Z,94.55
2023-03-08T07:33:01.443Z,94.14
2023-03-08T07:35:28.472Z,93.17
2023-03-08T07:37:55.330Z,93.54
2023-03-08T07:40:22.350Z,93.70
2023-03-08T07:42:49.279Z,94.02
2023-03-08T07:45:16.250Z,93.93
2023-03-08T07:47:43.147Z,93.77
2023-03-08T07:50:10.703Z,93.41
2023-03-08T07:52:37.698Z,93.39
2023-03-08T07:55:05.043Z,93.24
2023-03-08T07:57:31.936Z,93.25
2023-03-08T07:59:58.967Z,92.82
2023-03-08T08:02:25.967Z,92.64
2023-03-08T08:04:52.911Z,93.62
2023-03-08T08:07:19.861Z,93.83
2023-03-08T08:09:46.709Z,93.32
2023-03-08T08:12:13.674Z,93.29
2023-03-08T08:14:40.776Z,92.81
2023-03-08T08:17:07.807Z,91.48
2023-03-08T08:19:37.724Z,91.79
2023-03-08T08:22:05.154Z,92.09
2023-03-08T08:24:33.098Z,92.55
2023-03-08T08:27:00.085Z,92.92
2023-03-08T08:29:27.162Z,93.01
2023-03-08T08:31:54.108Z,93.41
2023-03-08T08:34:23.650Z,92.92
2023-03-08T08:36:52.144Z,92.33
2023-03-08T08:39:29.880Z,92.17
2023-03-08T08:41:59.503Z,91.35
2023-03-08T08:44:28.351Z,91.84
2023-03-08T08:47:02.282Z,92.07
2023-03-08T08:49:29.615Z,92.19
2023-03-08T08:51:56.684Z,91.99
2023-03-08T08:54:23.679Z,92.03
2023-03-08T08:56:50.782Z,92.05
2023-03-08T08:59:17.874Z,92.54
2023-03-08T09:01:45.176Z,92.07
2023-03-08T09:04:13.858Z,91.84
2023-03-08T09:06:40.995Z,92.69
2023-03-08T09:09:08.528Z,92.56
2023-03-08T09:11:39.879Z,92.88
2023-03-08T09:14:12.339Z,92.15
2023-03-08T09:16:39.440Z,92.06
2023-03-08T09:19:06.620Z,91.63
2023-03-08T09:21:34.350Z,90.80
2023-03-08T09:24:04.010Z,91.10
2023-03-08T09:26:31.656Z,90.88
2023-03-08T09:28:59.501Z,90.75
2023-03-08T09:31:26.451Z,90.31
2023-03-08T09:33:53.621Z,90.62
2023-03-08T09:36:20.638Z,90.46
2023-03-08T09:38:48.823Z,90.24
2023-03-08T09:41:18.818Z,90.40
2023-03-08T09:43:47.988Z,90.96
2023-03-08T09:46:17.338Z,91.11
2023-03-08T09:48:47.547Z,90.64
2023-03-08T09:51:17.706Z,90.34
2023-03-08T09:53:51.233Z,89.92
2023-03-08T09:56:21.580Z,89.12
2023-03-08T09:58:49.989Z,89.58
2023-03-08T10:01:18.424Z,89.66
2023-03-08T10:03:50.566Z,88.69
2023-03-08T10:06:23.508Z,89.25
2023-03-08T10:08:56.549Z,89.43
2023-03-08T10:11:26.758Z,89.98
2023-03-08T10:13:56.589Z,90.13
2023-03-08T10:16:26.413Z,90.06
2023-03-08T10:18:56.642Z,90.21
2023-03-08T10:21:25.360Z,90.17
2023-03-08T10:23:59.332Z,89.94
2023-03-08T10:26:27.201Z,89.89
2023-03-08T10:28:54.383Z,90.21
2023-03-08T10:31:21.745Z,89.75
2023-03-08T10:33:50.664Z,89.30
2023-03-08T10:36:20.596Z,89.58
2023-03-08T10:38:50.688Z,90.27
2023-03-08T10:41:18.003Z,90.92
2023-03-08T10:43:46.388Z,90.46
2023-03-08T10:46:15.308Z,90.48
2023-03-08T10:48:42.358Z,91.50
2023-03-08T10:51:12.399Z,91.45
2023-03-08T10:53:39.498Z,91.46
2023-03-08T10:56:22.040Z,91.60
2023-03-08T10:58:49.381Z,90.52
2023-03-08T11:01:19.407Z,90.42
2023-03-08T11:03:47.015Z,90.25
2023-03-08T11:06:15.122Z,90.60
2023-03-08T11:08:52.448Z,90.61
2023-03-08T11:11:19.470Z,90.48
2023-03-08T11:13:48.713Z,89.47
2023-03-08T11:16:18.900Z,89.42
2023-03-08T11:18:49.074Z,90.17
2023-03-08T11:21:21.893Z,90.89
2023-03-08T11:23:56.628Z,91.00
2023-03-08T11:26:28.448Z,91.41
2023-03-08T11:28:58.552Z,91.03
2023-03-08T11:31:30.406Z,90.35
2023-03-08T11:33:57.718Z,90.11
2023-03-08T11:36:27.698Z,90.16
2023-03-08T11:38:58.179Z,89.97
2023-03-08T11:41:32.356Z,90.56
2023-03-08T11:44:06.974Z,89.77
2023-03-08T11:46:37.163Z,90.35
2023-03-08T11:49:04.776Z,90.38
2023-03-08T11:51:34.790Z,90.31
2023-03-08T11:54:04.878Z,90.21
2023-03-08T11:56:39.732Z,90.16
2023-03-08T11:59:13.757Z,90.27
2023-03-08T12:01:45.731Z,90.81
2023-03-08T12:04:15.810Z,90.89
2023-03-08T12:06:44.112Z,90.72
2023-03-08T12:09:12.583Z,91.99
2023-03-08T12:11:42.756Z,92.35
2023-03-08T12:14:13.715Z,91.31
2023-03-08T12:16:47.445Z,90.71
2023-03-08T12:19:17.622Z,90.57
2023-03-08T12:21:49.865Z,90.61
2023-03-08T12:24:20.329Z,90.26
2023-03-08T12:26:50.877Z,90.40
2023-03-08T12:29:23.704Z,90.14
2023-03-08T12:31:51.370Z,90.42
2023-03-08T12:34:21.415Z,90.07
2023-03-08T12:36:48.459Z,90.77
2023-03-08T12:39:18.583Z,90.65
2023-03-08T12:41:56.525Z,90.52
2023-03-08T12:44:25.344Z,91.53
2023-03-08T12:47:02.672Z,91.66
2023-03-08T12:49:33.619Z,91.32
2023-03-08T12:52:02.458Z,91.94
2023-03-08T12:54:31.564Z,91.84
2023-03-08T12:56:58.680Z,91.80
2023-03-08T12:59:28.638Z,92.10
2023-03-08T13:02:03.492Z,91.26
2023-03-08T13:04:41.007Z,91.35
2023-03-08T13:07:16.734Z,90.86
2023-03-08T13:09:47.201Z,91.01
2023-03-08T13:12:17.281Z,90.64
2023-03-08T13:14:45.777Z,91.08
2023-03-08T13:17:15.761Z,91.21
2023-03-08T13:19:42.762Z,91.52
2023-03-08T13:22:16.553Z,92.46
2023-03-08T13:24:47.860Z,92.13
2023-03-08T13:27:18.078Z,92.21
2023-03-08T13:29:45.330Z,91.74
2023-03-08T13:32:15.668Z,91.49
2023-03-08T13:34:45.722Z,91.36
2023-03-08T13:37:15.783Z,91.38
2023-03-08T13:39:51.805Z,91.54
2023-03-08T13:42:24.897Z,91.68
2023-03-08T13:44:52.780Z,91.92
2023-03-08T13:47:20.115Z,91.32
2023-03-08T13:49:48.314Z,91.42
2023-03-08T13:52:19.541Z,90.81
2023-03-08T13:54:49.761Z,91.33
2023-03-08T13:57:19.691Z,91.49
2023-03-08T13:59:48.937Z,91.78
2023-03-08T14:02:19.597Z,91.68
2023-03-08T14:04:46.547Z,91.02
2023-03-08T14:07:20.888Z,90.61
2023-03-08T14:09:47.975Z,91.07
2023-03-08T14:12:17.505Z,91.40
2023-03-08T14:14:47.278Z,92.00
2023-03-08T14:17:17.464Z,92.55
2023-03-08T14:19:44.702Z,92.38
2023-03-08T14:22:14.507Z,91.78
2023-03-08T14:24:42.221Z,91.24
2023-03-08T14:27:12.288Z,91.06
2023-03-08T14:29:39.273Z,90.74
2023-03-08T14:32:09.767Z,91.10
2023-03-08T14:34:39.804Z,91.32
2023-03-08T14:37:07.159Z,90.99
2023-03-08T14:39:35.211Z,90.72
2023-03-08T14:42:05.284Z,90.94
2023-03-08T14:44:32.450Z,91.63
2023-03-08T14:47:08.672Z,91.83
2023-03-08T14:49:35.838Z,91.00
2023-03-08T14:52:03.248Z,91.31
2023-03-08T14:54:33.412Z,91.55
2023-03-08T14:57:02.968Z,91.25
2023-03-08T14:59:30.062Z,91.05
2023-03-08T15:01:57.138Z,91.51
2023-03-08T15:04:25.916Z,91.58
2023-03-08T15:06:54.169Z,91.76
2023-03-08T15:09:22.194Z,92.07
2023-03-08T15:11:50.163Z,92.17
2023-03-08T15:14:17.964Z,91.95
2023-03-08T15:16:44.938Z,92.27
2023-03-08T15:19:14.301Z,92.21
2023-03-08T15:21:41.726Z,92.35
2023-03-08T15:24:14.224Z,91.89
2023-03-08T15:26:41.224Z,91.28
2023-03-08T15:29:11.689Z,90.99
2023-03-08T15:31:38.724Z,91.26
2023-03-08T15:34:05.705Z,91.76
2023-03-08T15:36:35.922Z,92.05
2023-03-08T15:39:04.892Z,92.17
2023-03-08T15:41:32.040Z,91.57
2023-03-08T15:43:59.005Z,91.74
2023-03-08T15:46:26.015Z,91.78
2023-03-08T15:48:52.936Z,90.79
2023-03-08T15:51:21.469Z,91.47
2023-03-08T15:53:49.411Z,91.27
2023-03-08T15:56:16.592Z,91.37
2023-03-08T15:58:43.488Z,91.35
2023-03-08T16:01:12.171Z,91.66
2023-03-08T16:03:39.225Z,91.84
2023-03-08T16:06:09.422Z,91.50
2023-03-08T16:08:36.926Z,91.92
2023-03-08T16:11:07.312Z,92.02
2023-03-08T16:13:34.232Z,92.29
2023-03-08T16:16:01.994Z,92.26
2023-03-08T16:18:30.262Z,91.83
2023-03-08T16:20:57.891Z,91.73
2023-03-08T16:23:25.127Z,91.90
2023-03-08T16:26:00.230Z,92.51
2023-03-08T16:28:35.669Z,91.71
2023-03-08T16:31:02.657Z,91.09
2023-03-08T16:33:29.692Z,91.44
2023-03-08T16:35:57.017Z,91.38
2023-03-08T16:38:24.380Z,91.37
2023-03-08T16:40:55.614Z,91.90
2023-03-08T16:43:37.313Z,92.19
2023-03-08T16:46:08.047Z,92.30
2023-03-08T16:48:35.270Z,90.93
2023-03-08T16:51:02.256Z,91.31
2023-03-08T16:53:30.219Z,91.78
2023-03-08T16:56:00.461Z,92.39
2023-03-08T16:58:28.316Z,92.65
2023-03-08T17:00:56.221Z,92.98
2023-03-08T17:03:26.557Z,91.76
2023-03-08T17:05:53.686Z,92.86
2023-03-08T17:08:20.707Z,92.71
2023-03-08T17:10:48.258Z,92.28
2023-03-08T17:13:15.478Z,92.27
2023-03-08T17:15:47.245Z,92.00
2023-03-08T17:18:14.908Z,92.98
2023-03-08T17:20:42.403Z,93.35
2023-03-08T17:23:10.129Z,93.72
2023-03-08T17:25:40.904Z,92.99
2023-03-08T17:28:08.466Z,92.70
2023-03-08T17:30:35.376Z,92.98
2023-03-08T17:33:02.539Z,93.10
2023-03-08T17:38:01.345Z,93.88
2023-03-08T17:40:30.386Z,94.02
2023-03-08T17:43:01.225Z,94.08
2023-03-08T17:45:30.652Z,94.16
2023-03-08T17:48:03.413Z,93.96
2023-03-08T17:50:32.219Z,93.77
2023-03-08T17:53:01.378Z,93.59
2023-03-08T17:55:30.111Z,93.74
2023-03-08T17:58:02.926Z,94.43
2023-03-08T18:00:32.173Z,94.62
2023-03-08T18:03:05.165Z,94.52
2023-03-08T18:05:34.515Z,94.70
2023-03-08T18:08:02.681Z,95.24
2023-03-08T18:10:31.209Z,94.95
2023-03-08T18:12:59.839Z,95.03
2023-03-08T18:15:27.916Z,94.98
2023-03-08T18:17:56.083Z,95.23
2023-03-08T18:20:27.498Z,96.49
2023-03-08T18:22:55.457Z,96.22
2023-03-08T18:25:25.096Z,94.96
2023-03-08T18:27:53.554Z,95.36
2023-03-08T18:30:26.191Z,95.46
2023-03-08T18:32:55.394Z,95.65
2023-03-08T18:35:24.062Z,95.12
2023-03-08T18:37:52.791Z,95.42
2023-03-08T18:40:21.041Z,95.29
2023-03-08T18:42:48.931Z,94.41
2023-03-08T18:45:18.966Z,94.83
2023-03-08T18:47:49.937Z,95.33
2023-03-08T18:50:19.728Z,96.31
2023-03-08T18:52:47.828Z,96.42
2023-03-08T18:55:28.928Z,96.96
2023-03-08T18:57:56.995Z,97.30
2023-03-08T19:00:25.373Z,96.92
2023-03-08T19:02:54.277Z,96.58
2023-03-08T19:05:23.752Z,96.07
2023-03-08T19:07:54.734Z,96.14
2023-03-08T19:10:22.792Z,96.25
2023-03-08T19:12:50.837Z,97.00
2023-03-08T19:15:19.909Z,97.56
2023-03-08T19:17:48.225Z,97.43
2023-03-08T19:20:16.333Z,97.69
2023-03-08T19:22:44.205Z,97.53
2023-03-08T19:25:12.972Z,97.06
2023-03-08T19:27:40.932Z,96.87
2023-03-08T19:30:09.325Z,95.77
2023-03-08T19:32:37.209Z,95.97
2023-03-08T19:35:05.315Z,96.43
2023-03-08T19:37:33.370Z,96.79
2023-03-08T19:40:01.592Z,97.00
2023-03-08T19:42:29.576Z,96.92
2023-03-08T19:44:57.488Z,96.50
2023-03-08T19:47:25.584Z,96.14
2023-03-08T19:49:54.690Z,95.96
2023-03-08T19:52:22.533Z,96.46
2023-03-08T19:54:50.983Z,96.43
2023-03-08T19:57:19.229Z,96.29
2023-03-08T19:59:47.093Z,96.30
2023-03-08T20:02:15.194Z,96.72
2023-03-08T20:04:43.325Z,96.91
2023-03-08T20:07:11.270Z,97.29
2023-03-08T20:09:41.906Z,97.04
2023-03-08T20:12:10.154Z,97.45
2023-03-08T20:14:38.321Z,96.56
2023-03-08T20:17:08.755Z,96.21
2023-03-08T20:19:41.397Z,96.66
2023-03-08T20:22:09.299Z,97.36
2023-03-08T20:24:37.621Z,97.83
2023-03-08T20:27:06.190Z,98.11
2023-03-08T20:29:35.172Z,97.57
2023-03-08T20:32:03.448Z,97.55
2023-03-08T20:34:33.040Z,97.52
2023-03-08T20:37:01.576Z,97.06
2023-03-08T20:39:29.658Z,97.20
2023-03-08T20:41:59.221Z,97.24
2023-03-08T20:44:27.241Z,96.71
2023-03-08T20:46:56.404Z,95.87
2023-03-08T20:49:25.189Z,96.25
2023-03-08T20:51:53.180Z,97.39
2023-03-08T20:54:21.632Z,97.34
2023-03-08T20:56:49.653Z,97.40
2023-03-08T20:59:21.067Z,97.29
2023-03-08T21:01:49.070Z,96.42
2023-03-08T21:04:17.154Z,96.38
2023-03-08T21:06:45.358Z,94.86
2023-03-08T21:09:13.495Z,95.01
2023-03-08T21:11:41.986Z,95.48
2023-03-08T21:14:11.130Z,96.29
2023-03-08T21:16:41.011Z,95.88
2023-03-08T21:19:09.821Z,95.73
2023-03-08T21:21:44.260Z,95.99
2023-03-08T21:24:13.983Z,96.43
2023-03-08T21:26:42.218Z,97.04
2023-03-08T21:29:12.365Z,96.28
2023-03-08T21:31:42.699Z,95.16
2023-03-08T21:34:12.638Z,95.92
2023-03-08T21:36:41.049Z,95.55
2023-03-08T21:39:10.162Z,95.84
2023-03-08T21:41:39.276Z,96.56
2023-03-08T21:44:10.167Z,96.28
2023-03-08T21:46:38.816Z,96.70
2023-03-08T21:49:07.276Z,96.81
2023-03-08T21:51:35.229Z,97.43
2023-03-08T21:54:03.171Z,98.14
2023-03-08T21:56:31.237Z,98.21
2023-03-08T21:58:59.260Z,97.97
2023-03-08T22:01:28.194Z,98.47
2023-03-08T22:03:56.610Z,98.11
2023-03-08T22:06:25.039Z,97.45
2023-03-08T22:08:53.735Z,97.20
2023-03-08T22:11:21.982Z,96.92
2023-03-08T22:13:52.131Z,97.02
2023-03-08T22:16:20.701Z,97.24
2023-03-08T22:18:49.583Z,96.38
2023-03-08T22:21:17.661Z,96.68
2023-03-08T22:23:45.458Z,97.53
2023-03-08T22:26:14.626Z,97.72
2023-03-08T22:28:42.609Z,97.53
2023-03-08T22:31:13.599Z,97.47
2023-03-08T22:33:41.566Z,97.36
2023-03-08T22:36:10.396Z,96.34
2023-03-08T22:38:38.915Z,95.32
2023-03-08T22:41:09.771Z,95.10
2023-03-08T22:43:37.965Z,95.43
2023-03-08T22:46:06.877Z,95.61
2023-03-08T22:48:34.744Z,95.71
2023-03-08T22:51:10.687Z,95.66
2023-03-08T22:53:39.445Z,96.37
2023-03-08T22:56:08.367Z,96.99
2023-03-08T22:58:35.940Z,96.93
2023-03-08T23:01:03.549Z,97.27
2023-03-08T23:03:32.155Z,97.08
2023-03-08T23:05:59.646Z,96.82
2023-03-08T23:08:28.283Z,96.64
2023-03-08T23:10:55.754Z,96.70
2023-03-08T23:13:33.338Z,97.97
2023-03-08T23:16:01.167Z,97.43
2023-03-08T23:18:28.535Z,96.99
2023-03-08T23:20:56.030Z,96.54
2023-03-08T23:23:25.508Z,96.40
2023-03-08T23:25:52.953Z,95.92
2023-03-08T23:28:21.302Z,95.40
2023-03-08T23:30:48.402Z,95.52
2023-03-08T23:33:15.871Z,95.88
2023-03-08T23:35:42.981Z,95.71
2023-03-08T23:38:10.228Z,95.15
2023-03-08T23:40:39.942Z,95.56
2023-03-08T23:43:07.800Z,95.82
2023-03-08T23:45:34.857Z,95.88
2023-03-08T23:48:03.414Z,95.44
2023-03-08T23:50:30.920Z,95.40
2023-03-08T23:52:57.990Z,95.54
2023-03-08T23:55:25.000Z,96.00
2023-03-08T23:57:51.975Z,96.19
